Flight Track Log - Related Links

Times and Time Zones

All times are in EDT time to prevent confusion due to time zone crossing. See the AWE2123 flight status page for this flight to view local times or setup timezone preferences in your user account.

Time Position Orientation Groundspeed Altitude Reporting Facility
EDT Latitude Longitude Course Direction KTS MPH feet Rate Location/Type
Fri 04:21:00 PM 42.1833 -70.9411 270° West  Level FlightAware Approximate
Fri 04:22:00 PM 42.1624 -71.0923 257° West  Level FlightAware Approximate
Fri 04:22:21 PM 42.3364 -71.2456 257° West 278 320 9,000  Level FlightAware ADS-B (SBBR / BSB)
Fri 04:22:28 PM 42.3304 -71.2686 251° West 274 315 9,500 2,615 Climbing FlightAware ADS-B (SBBR / BSB)
Fri 04:23:00 PM 42.3156 -71.3223 250° West 277 319 10,700 1,500 Climbing FlightAware ADS-B (SBBR / BSB)
Fri 04:23:32 PM 42.3001 -71.3804 250° West 287 330 11,100 1,909 Climbing FlightAware ADS-B (SBBR / BSB)
Fri 04:24:06 PM 42.2813 -71.4503 250° West 344 396 12,800 2,769 Climbing FlightAware ADS-B (SBBR / BSB)
Fri 04:24:37 PM 42.2648 -71.5130 250° West 343 395 14,100 2,308 Climbing FlightAware ADS-B (SBBR / BSB)
Fri 04:25:24 PM 42.2408 -71.5953 250° West 343 395 15,800 2,278 Climbing Boston Center
Fri 04:26:25 PM 42.2042 -71.7322 250° West 361 415 18,200 2,262 Climbing Boston Center
Fri 04:27:26 PM 42.1717 -71.8611 251° West 367 422 20,400 1,935 Climbing Boston Center
Fri 04:28:29 PM 42.1344 -71.9950 249° West 379 436 22,200 1,742 Climbing Boston Center
Fri 04:29:30 PM 42.0969 -72.1328 250° West 389 448 24,000 1,623 Climbing Boston Center
Fri 04:30:31 PM 42.0572 -72.2742 249° West 400 460 25,500 1,475 Climbing Boston Center
Fri 04:31:32 PM 42.0172 -72.4192 250° West 411 473 27,000 1,230 Climbing Boston Center
Fri 04:32:33 PM 41.9764 -72.5664 250° West 418 481 28,000 480 Climbing Boston Center
Fri 04:33:37 PM 41.9228 -72.7092 243° Southwest 427 491 28,000  Level Boston Center
Fri 04:34:37 PM 41.8414 -72.8253 227° Southwest 430 495 28,000  Level Boston Center
Fri 04:35:38 PM 41.7572 -72.9381 225° Southwest 429 494 28,000  Level Boston Center
Fri 04:36:38 PM 41.6733 -73.0553 226° Southwest 433 498 28,000  Level Boston Center
Fri 04:37:42 PM 41.5719 -73.1922 225° Southwest 435 501 28,000  Level Boston Center
Fri 04:38:42 PM 41.4839 -73.3089 225° Southwest 431 496 28,000  Level Boston Center
Fri 04:39:43 PM 41.4000 -73.4200 225° Southwest 429 494 28,000  Level Boston Center
Fri 04:40:46 PM 41.3158 -73.5339 225° Southwest 433 498 28,000  Level Boston Center
Fri 04:41:47 PM 41.2386 -73.6500 229° Southwest 425 489 28,000  Level Boston Center
Fri 04:42:33 PM 41.1844 -73.7486 234° Southwest 439 505 28,000  Level New York Center
Fri 04:43:34 PM 41.1083 -73.8719 231° Southwest 433 498 28,000  Level New York Center
Fri 04:44:33 PM 41.0364 -73.9950 232° Southwest 433 498 28,000  Level New York Center
Fri 04:45:33 PM 40.9642 -74.1153 232° Southwest 433 498 28,000 -50 Level New York Center
Fri 04:50:30 PM 40.6100 -74.6920 232° Southwest 431 496 27,700 -183 Descending FlightAware ADS-B
Fri 04:51:00 PM 40.5610 -74.7410 217° Southwest 432 497 27,000 -618 Descending FlightAware ADS-B
Fri 04:51:38 PM 40.5090 -74.7910 216° Southwest 432 497 27,000 -1,437 Level FlightAware ADS-B
Fri 04:52:11 PM 40.4530 -74.8490 218° Southwest 424 488 25,300 -2,553 Descending FlightAware ADS-B
Fri 04:52:25 PM 40.4350 -74.8780 231° Southwest 404 465 25,000 -182 Descending FlightAware ADS-B
Fri 04:53:50 PM 40.3640 -75.0280 238° Southwest 404 465 25,000 -1,472 Level FlightAware ADS-B
Fri 04:54:11 PM 40.3180 -75.0800 221° Southwest 404 465 22,400 -4,500 Descending FlightAware ADS-B
Fri 04:54:30 PM 40.2990 -75.1150 235° Southwest 390 449 22,000 -1,459 Descending FlightAware ADS-B
Fri 04:55:25 PM 40.2340 -75.2140 229° Southwest 390 449 20,600 -936 Descending FlightAware ADS-B
Fri 04:56:19 PM 40.1780 -75.2950 228° Southwest 382 440 20,300 -474 Descending FlightAware ADS-B
Fri 04:56:41 PM 40.1460 -75.3430 229° Southwest 383 441 20,000 -250 Descending FlightAware ADS-B
Fri 04:57:31 PM 40.0960 -75.4170 229° Southwest 383 441 20,000  Level FlightAware ADS-B
Fri 04:58:05 PM 40.0630 -75.4670 229° Southwest 383 441 20,000  Level FlightAware ADS-B
Fri 04:58:53 PM 40.0150 -75.5390 229° Southwest 383 441 20,000  Level FlightAware ADS-B
Fri 04:59:27 PM 39.9820 -75.5890 229° Southwest 383 441 20,000  Level FlightAware ADS-B
Fri 05:00:27 PM 39.9220 -75.6780 229° Southwest 383 441 20,000  Level FlightAware ADS-B
Fri 05:01:33 PM 39.7858 -75.8847 229° Southwest 385 443 20,000 -714 Level New York Center
Fri 05:02:33 PM 39.7208 -75.9856 230° Southwest 385 443 18,500 -1,450 Descending New York Center
Fri 05:03:33 PM 39.6581 -76.0858 231° Southwest 379 436 17,100 -1,567 Descending New York Center
Fri 05:04:47 PM 39.5833 -76.2000 230° Southwest 353 406 15,000 -1,781 Descending Potomac TRACON
Fri 05:05:41 PM 39.5333 -76.3000 237° Southwest 348 400 13,300 -1,579 Descending Potomac TRACON
Fri 05:06:41 PM 39.4667 -76.4000 229° Southwest 340 391 12,000 -650 Descending Potomac TRACON
Fri 05:07:41 PM 39.3833 -76.4667 212° Southwest 345 397 12,000 -694 Level Potomac TRACON
Fri 05:08:42 PM 39.3167 -76.5333 218° Southwest 337 388 10,600 -992 Descending Potomac TRACON
Fri 05:09:42 PM 39.2333 -76.6167 218° Southwest 335 386 10,000 -300 Descending Potomac TRACON
Fri 05:10:42 PM 39.1667 -76.6667 210° Southwest 292 336 10,000  Level Potomac TRACON
Fri 05:11:43 PM 39.1000 -76.7500 224° Southwest 287 330 10,000 -50 Level Potomac TRACON
Fri 05:12:43 PM 39.0500 -76.8167 226° Southwest 284 327 9,900 -850 Descending Potomac TRACON
Fri 05:13:43 PM 38.9833 -76.8833 218° Southwest 282 325 8,300 -1,600 Descending Potomac TRACON
Fri 05:14:43 PM 38.9333 -76.9333 218° Southwest 272 313 6,700 -1,843 Descending Potomac TRACON
Fri 05:15:50 PM 38.8500 -76.9500 189° South 281 323 4,400 -1,984 Descending Potomac TRACON
Fri 05:16:50 PM 38.7667 -76.9500 180° South 263 303 2,500 -1,000 Descending Potomac TRACON
Fri 05:17:44 PM 38.7333 -76.9833 218° Southwest 191 220 2,500 -421 Level Potomac TRACON
Fri 05:18:44 PM 38.7500 -77.0333 293° West 160 184 1,700 -750 Descending Potomac TRACON
Fri 05:19:44 PM 38.8000 -77.0333 360° North 142 163 1,000 -700 Descending Potomac TRACON
Fri 05:20:44 PM 38.8333 -77.0333 360° North 129 148 300 -700 Descending Potomac TRACON

Login

Don't have an account? Register now (free) for customized features, flight alerts, and more!